Time;durP1;ratioP1;P1;durP2;ratioP2;P2;SDS_P1;SDS_P2;PMS_P1;PMS_P2;Temp;Humidity;BMP_temperature;BMP_pressure;BME280_temperature;BME280_humidity;BME280_pressure;Samples;Min_cycle;Max_cycle;Signal;HPM_P1;HPM_P2
2023/03/25 00:00:57;;;;;;;2.72;1.23;;;;;;;;;;5015162;28;20032;-63
2023/03/25 00:03:28;;;;;;;4.18;1.30;;;;;;;;;;5014875;28;20046;-62
2023/03/25 00:05:55;;;;;;;3.53;1.30;;;;;;;;;;5013688;28;20153;-62
2023/03/25 00:08:21;;;;;;;3.35;1.10;;;;;;;;;;5042001;28;20033;-62
2023/03/25 00:10:58;;;;;;;7.18;1.33;;;;;;;;;;5027433;28;20046;-62
2023/03/25 00:13:24;;;;;;;2.42;1.17;;;;;;;;;;5028587;28;20056;-62
2023/03/25 00:15:52;;;;;;;1.85;1.10;;;;;;;;;;5011015;28;20911;-62
2023/03/25 00:18:19;;;;;;;8.57;1.65;;;;;;;;;;5023485;28;20048;-63
2023/03/25 00:20:48;;;;;;;2.90;1.05;;;;;;;;;;5029875;28;20111;-62
2023/03/25 00:23:15;;;;;;;1.70;0.90;;;;;;;;;;5017193;28;20030;-63
2023/03/25 00:25:40;;;;;;;2.90;1.30;;;;;;;;;;5009706;28;20109;-63
2023/03/25 00:28:07;;;;;;;3.13;1.30;;;;;;;;;;5030276;28;20108;-63
2023/03/25 00:30:32;;;;;;;1.52;0.73;;;;;;;;;;5030417;28;20520;-63
2023/03/25 00:33:00;;;;;;;3.30;1.20;;;;;;;;;;5012248;28;20041;-62
2023/03/25 00:35:27;;;;;;;2.78;1.23;;;;;;;;;;5031732;28;20120;-62
2023/03/25 00:37:58;;;;;;;2.92;1.30;;;;;;;;;;5026935;28;20025;-62
2023/03/25 00:40:28;;;;;;;;;;;;;;;;;;5028969;28;20112;-60
2023/03/25 00:42:54;;;;;;;4.60;1.65;;;;;;;;;;5032105;28;19909;-62
2023/03/25 00:45:20;;;;;;;4.60;1.10;;;;;;;;;;5028611;28;20536;-61
2023/03/25 00:47:45;;;;;;;2.72;1.17;;;;;;;;;;5022117;28;20033;-62
2023/03/25 00:50:11;;;;;;;3.47;1.13;;;;;;;;;;5016289;28;20025;-63
2023/03/25 00:52:36;;;;;;;1.05;0.80;;;;;;;;;;5027050;28;20033;-62
2023/03/25 00:55:03;;;;;;;2.97;1.17;;;;;;;;;;5013753;28;20030;-60
2023/03/25 00:57:29;;;;;;;2.63;1.00;;;;;;;;;;5014533;28;20065;-61
2023/03/25 00:59:54;;;;;;;8.88;1.40;;;;;;;;;;5016774;28;20283;-61
2023/03/25 01:02:20;;;;;;;3.40;0.90;;;;;;;;;;5029478;28;20029;-61
2023/03/25 01:04:48;;;;;;;3.47;1.45;;;;;;;;;;5030483;28;20404;-61
2023/03/25 01:07:14;;;;;;;1.27;0.73;;;;;;;;;;5028598;28;20029;-61
2023/03/25 01:09:40;;;;;;;2.90;1.10;;;;;;;;;;5026163;28;20754;-61
2023/03/25 01:12:06;;;;;;;4.30;1.38;;;;;;;;;;5030355;28;20079;-61
2023/03/25 01:14:31;;;;;;;3.05;0.88;;;;;;;;;;5027770;28;20067;-61
2023/03/25 01:16:58;;;;;;;2.38;1.17;;;;;;;;;;5021515;28;20132;-61
2023/03/25 01:19:23;;;;;;;2.22;1.00;;;;;;;;;;5029436;28;20119;-62
2023/03/25 01:21:49;;;;;;;6.43;1.50;;;;;;;;;;5019731;28;20461;-60
2023/03/25 01:24:14;;;;;;;4.15;1.48;;;;;;;;;;5035396;28;20033;-62
2023/03/25 01:26:42;;;;;;;4.55;1.60;;;;;;;;;;5043177;28;20458;-62
2023/03/25 01:29:09;;;;;;;4.60;1.80;;;;;;;;;;5035122;28;20053;-62
2023/03/25 01:31:34;;;;;;;4.60;1.60;;;;;;;;;;5051684;28;20025;-61
2023/03/25 01:34:00;;;;;;;4.30;1.40;;;;;;;;;;5037448;28;20036;-61
2023/03/25 01:36:28;;;;;;;4.32;1.50;;;;;;;;;;5055172;28;20108;-61
2023/03/25 01:38:54;;;;;;;4.65;1.40;;;;;;;;;;5048833;28;20048;-61
2023/03/25 01:41:20;;;;;;;4.30;1.75;;;;;;;;;;5019242;28;20478;-62
2023/03/25 01:44:01;;;;;;;6.93;1.40;;;;;;;;;;5014314;28;20076;-62
2023/03/25 01:46:27;;;;;;;2.40;1.15;;;;;;;;;;5015039;28;20368;-62
2023/03/25 01:48:52;;;;;;;5.13;1.38;;;;;;;;;;5018474;28;20525;-62
2023/03/25 01:51:23;;;;;;;4.28;1.35;;;;;;;;;;5033374;28;20060;-62
2023/03/25 01:53:52;;;;;;;4.65;1.55;;;;;;;;;;5034950;28;20045;-62
2023/03/25 01:56:21;;;;;;;2.92;1.60;;;;;;;;;;5014571;28;20475;-61
2023/03/25 01:58:48;;;;;;;3.45;1.33;;;;;;;;;;5014027;28;20137;-60
2023/03/25 02:01:15;;;;;;;4.63;1.20;;;;;;;;;;5014924;28;20038;-61
2023/03/25 02:03:49;;;;;;;6.53;1.80;;;;;;;;;;5049246;28;20136;-60
2023/03/25 02:06:21;;;;;;;3.67;1.63;;;;;;;;;;5046673;28;20140;-63
2023/03/25 02:08:48;;;;;;;3.05;1.30;;;;;;;;;;5014771;28;20087;-60
2023/03/25 02:11:13;;;;;;;3.88;1.50;;;;;;;;;;5014663;28;20030;-61
2023/03/25 02:13:40;;;;;;;3.28;1.25;;;;;;;;;;5037908;28;20044;-62
2023/03/25 02:16:23;;;;;;;5.35;1.40;;;;;;;;;;5034038;28;20033;-62
2023/03/25 02:19:06;;;;;;;5.65;1.60;;;;;;;;;;5014262;28;20038;-62
2023/03/25 02:22:13;;;;;;;2.42;1.20;;;;;;;;;;5032872;28;20044;-63
2023/03/25 02:25:12;;;;;;;2.17;1.30;;;;;;;;;;5013409;28;20045;-62
2023/03/25 02:28:00;;;;;;;2.25;1.25;;;;;;;;;;5015129;28;20080;-62
2023/03/25 02:30:38;;;;;;;3.25;1.23;;;;;;;;;;5028680;28;20464;-61
2023/03/25 02:33:27;;;;;;;6.00;1.60;;;;;;;;;;5052676;28;20037;-61
2023/03/25 02:36:23;;;;;;;3.72;1.35;;;;;;;;;;5030303;28;20038;-62
2023/03/25 02:39:07;;;;;;;6.65;1.45;;;;;;;;;;5019530;28;20030;-61
2023/03/25 02:42:00;;;;;;;4.18;1.30;;;;;;;;;;5033071;28;20040;-62
2023/03/25 02:44:34;;;;;;;3.35;1.30;;;;;;;;;;5022281;28;20124;-62
2023/03/25 02:47:04;;;;;;;4.63;1.30;;;;;;;;;;5020756;28;20139;-61
2023/03/25 02:49:40;;;;;;;3.78;1.40;;;;;;;;;;5032431;28;20502;-60
2023/03/25 02:52:22;;;;;;;3.28;1.50;;;;;;;;;;5032696;28;20039;-61
2023/03/25 02:54:50;;;;;;;2.47;1.13;;;;;;;;;;5046528;28;20052;-60
2023/03/25 02:57:18;;;;;;;3.38;1.40;;;;;;;;;;5018861;28;20112;-62
2023/03/25 02:59:46;;;;;;;2.65;1.33;;;;;;;;;;5032904;28;20104;-60
2023/03/25 03:02:13;;;;;;;1.73;1.10;;;;;;;;;;5048378;28;20053;-61
2023/03/25 03:04:53;;;;;;;29.45;2.03;;;;;;;;;;5053135;28;20024;-63
2023/03/25 03:07:31;;;;;;;3.97;1.23;;;;;;;;;;5047034;28;20037;-61
2023/03/25 03:10:29;;;;;;;2.13;1.08;;;;;;;;;;5052443;28;20036;-62
2023/03/25 03:13:32;;;;;;;1.42;1.00;;;;;;;;;;5012114;28;20045;-62
2023/03/25 03:16:24;;;;;;;6.30;1.42;;;;;;;;;;5043615;28;20036;-62
2023/03/25 03:19:01;;;;;;;2.67;1.50;;;;;;;;;;5052108;28;20120;-60
2023/03/25 03:22:01;;;;;;;2.13;1.25;;;;;;;;;;5024415;28;20445;-61
2023/03/25 03:24:40;;;;;;;3.83;1.33;;;;;;;;;;5013466;28;20037;-61
2023/03/25 03:27:11;;;;;;;4.68;1.60;;;;;;;;;;5012528;28;20275;-61
2023/03/25 03:29:45;;;;;;;2.33;1.40;;;;;;;;;;5019899;28;20045;-61
2023/03/25 03:32:17;;;;;;;4.03;1.58;;;;;;;;;;5021966;28;20441;-61
2023/03/25 03:34:55;;;;;;;1.88;1.00;;;;;;;;;;5013811;28;20038;-61
2023/03/25 03:37:33;;;;;;;3.03;1.38;;;;;;;;;;5024089;28;20040;-61
2023/03/25 03:40:02;;;;;;;2.08;1.30;;;;;;;;;;5017497;28;20091;-61
2023/03/25 03:42:40;;;;;;;2.28;1.40;;;;;;;;;;5029799;28;20037;-61
2023/03/25 03:45:40;;;;;;;3.03;1.45;;;;;;;;;;5011547;28;20099;-61
2023/03/25 03:48:12;;;;;;;3.58;1.80;;;;;;;;;;5025421;28;20057;-61
2023/03/25 03:50:45;;;;;;;4.68;1.50;;;;;;;;;;5020945;28;20034;-61
2023/03/25 03:53:28;;;;;;;2.90;1.42;;;;;;;;;;5025189;28;20049;-61
2023/03/25 03:56:11;;;;;;;2.58;1.20;;;;;;;;;;5030524;28;20098;-61
2023/03/25 03:58:42;;;;;;;2.40;1.10;;;;;;;;;;5015922;28;20037;-62
2023/03/25 04:01:18;;;;;;;5.63;1.58;;;;;;;;;;5011667;28;20354;-61
2023/03/25 04:03:52;;;;;;;3.88;1.60;;;;;;;;;;5028039;28;20044;-61
2023/03/25 04:06:23;;;;;;;3.90;1.80;;;;;;;;;;5017996;28;20069;-61
2023/03/25 04:09:07;;;;;;;3.72;1.65;;;;;;;;;;5010645;28;20478;-61
2023/03/25 04:11:40;;;;;;;1.88;1.27;;;;;;;;;;5012414;28;20052;-63
2023/03/25 04:14:07;;;;;;;3.33;1.30;;;;;;;;;;5022971;28;20120;-62
2023/03/25 04:16:32;;;;;;;2.88;1.40;;;;;;;;;;5021798;28;20038;-62
2023/03/25 04:18:58;;;;;;;2.45;1.40;;;;;;;;;;5025860;28;20108;-62
2023/03/25 04:21:24;;;;;;;2.63;1.30;;;;;;;;;;5014846;28;20042;-62
2023/03/25 04:23:50;;;;;;;3.50;1.83;;;;;;;;;;5011578;28;20041;-62
2023/03/25 04:26:16;;;;;;;4.18;1.67;;;;;;;;;;5017458;28;20041;-62
2023/03/25 04:28:43;;;;;;;4.03;1.95;;;;;;;;;;5022646;28;20030;-61
2023/03/25 04:31:16;;;;;;;3.17;1.70;;;;;;;;;;5012090;28;20114;-62
2023/03/25 04:33:47;;;;;;;9.15;2.25;;;;;;;;;;5030885;28;20041;-65
2023/03/25 04:36:14;;;;;;;2.80;1.60;;;;;;;;;;5019050;28;20041;-65
2023/03/25 04:38:39;;;;;;;6.78;1.90;;;;;;;;;;5025310;28;20060;-64
2023/03/25 04:41:06;;;;;;;5.90;1.50;;;;;;;;;;5020855;28;20474;-63
2023/03/25 04:43:31;;;;;;;5.88;1.80;;;;;;;;;;5028593;28;20102;-63
2023/03/25 04:45:58;;;;;;;4.68;1.45;;;;;;;;;;5016280;28;20377;-62
2023/03/25 04:48:30;;;;;;;4.97;1.77;;;;;;;;;;5025576;28;20034;-63
2023/03/25 04:50:57;;;;;;;3.72;1.70;;;;;;;;;;5030004;28;20041;-63
2023/03/25 04:53:24;;;;;;;6.80;1.83;;;;;;;;;;5012416;28;20049;-63
2023/03/25 04:55:50;;;;;;;3.90;1.92;;;;;;;;;;5031159;28;20104;-63
2023/03/25 04:58:16;;;;;;;3.67;2.20;;;;;;;;;;5028193;28;20092;-64
2023/03/25 05:00:43;;;;;;;6.22;1.65;;;;;;;;;;5019302;28;20046;-64
2023/03/25 05:03:10;;;;;;;6.38;1.77;;;;;;;;;;5010450;28;20239;-63
2023/03/25 05:05:36;;;;;;;7.28;1.98;;;;;;;;;;5027282;28;20065;-64
2023/03/25 05:08:02;;;;;;;5.47;1.92;;;;;;;;;;5017954;28;20104;-63
2023/03/25 05:10:31;;;;;;;8.57;1.80;;;;;;;;;;5015936;28;20116;-65
2023/03/25 05:13:01;;;;;;;2.25;0.95;;;;;;;;;;5012056;28;20516;-65
2023/03/25 05:15:29;;;;;;;2.85;1.40;;;;;;;;;;5029158;28;20041;-66
2023/03/25 05:17:54;;;;;;;3.53;1.63;;;;;;;;;;5035468;28;20037;-64
2023/03/25 05:20:21;;;;;;;2.58;1.15;;;;;;;;;;5021520;28;20116;-64
2023/03/25 05:22:46;;;;;;;5.47;1.55;;;;;;;;;;5026635;28;20029;-62
2023/03/25 05:25:12;;;;;;;7.45;1.63;;;;;;;;;;5020150;28;20407;-63
2023/03/25 05:27:38;;;;;;;5.97;1.70;;;;;;;;;;5023976;28;20037;-62
2023/03/25 05:30:05;;;;;;;5.32;1.55;;;;;;;;;;5014033;28;20029;-62
2023/03/25 05:32:32;;;;;;;7.82;1.92;;;;;;;;;;5027186;28;20038;-62
2023/03/25 05:34:58;;;;;;;5.35;1.38;;;;;;;;;;5013672;28;20033;-63
2023/03/25 05:37:24;;;;;;;5.60;1.10;;;;;;;;;;5022668;28;20038;-62
2023/03/25 05:39:50;;;;;;;6.53;1.73;;;;;;;;;;5016551;28;20465;-63
2023/03/25 05:42:16;;;;;;;4.85;1.35;;;;;;;;;;5022740;28;20025;-63
2023/03/25 05:44:49;;;;;;;4.40;1.48;;;;;;;;;;5023202;28;20043;-63
2023/03/25 05:47:22;;;;;;;2.17;1.25;;;;;;;;;;5022875;28;20026;-63
2023/03/25 05:49:49;;;;;;;2.88;1.00;;;;;;;;;;5020928;28;20063;-63
2023/03/25 05:52:16;;;;;;;5.78;1.63;;;;;;;;;;5029517;28;20033;-62
2023/03/25 05:54:45;;;;;;;6.00;1.80;;;;;;;;;;5031083;28;20028;-62
2023/03/25 05:57:12;;;;;;;2.88;1.45;;;;;;;;;;5030729;28;20072;-62
2023/03/25 05:59:38;;;;;;;3.03;1.35;;;;;;;;;;5019466;28;20041;-63
2023/03/25 06:02:06;;;;;;;2.22;1.13;;;;;;;;;;5015466;28;20100;-63
2023/03/25 06:04:36;;;;;;;1.98;1.05;;;;;;;;;;5015175;28;20032;-62
2023/03/25 06:07:13;;;;;;;5.45;1.42;;;;;;;;;;5021648;28;20117;-64
2023/03/25 06:09:47;;;;;;;4.53;1.30;;;;;;;;;;5033416;28;20049;-62
2023/03/25 06:12:18;;;;;;;7.35;1.50;;;;;;;;;;5023359;28;20021;-63
2023/03/25 06:14:47;;;;;;;;;;;;;;;;;;5051926;28;20044;-62
2023/03/25 06:17:17;;;;;;;1.48;0.90;;;;;;;;;;5032088;28;20003;-64
2023/03/25 06:19:43;;;;;;;2.38;0.93;;;;;;;;;;5032696;28;20037;-64
2023/03/25 06:22:10;;;;;;;4.28;1.35;;;;;;;;;;5028950;28;20044;-64
2023/03/25 06:24:40;;;;;;;6.30;1.60;;;;;;;;;;5025602;28;20021;-64
2023/03/25 06:27:08;;;;;;;5.90;1.52;;;;;;;;;;5019611;28;20037;-62
2023/03/25 06:29:38;;;;;;;6.72;1.65;;;;;;;;;;5054201;28;20075;-64
2023/03/25 06:32:04;;;;;;;5.38;1.85;;;;;;;;;;5052357;28;20035;-63
2023/03/25 06:34:33;;;;;;;7.00;1.63;;;;;;;;;;5054403;28;20060;-63
2023/03/25 06:37:00;;;;;;;4.93;1.38;;;;;;;;;;5033041;28;20118;-62
2023/03/25 06:39:26;;;;;;;5.70;1.60;;;;;;;;;;5024465;28;20066;-62
2023/03/25 06:41:51;;;;;;;12.07;1.92;;;;;;;;;;5024691;28;20048;-61
2023/03/25 06:44:17;;;;;;;4.55;1.70;;;;;;;;;;5033340;28;20029;-62
2023/03/25 06:46:42;;;;;;;7.30;1.77;;;;;;;;;;5024716;28;20034;-62
2023/03/25 06:49:08;;;;;;;7.75;1.70;;;;;;;;;;5031449;28;20449;-63
2023/03/25 06:51:33;;;;;;;3.35;1.38;;;;;;;;;;5028900;28;20033;-61
2023/03/25 06:53:59;;;;;;;3.45;1.42;;;;;;;;;;5022633;28;20462;-62
2023/03/25 06:56:24;;;;;;;4.55;1.48;;;;;;;;;;5018623;28;20032;-61
2023/03/25 06:58:49;;;;;;;8.60;2.17;;;;;;;;;;5031853;28;20037;-61
2023/03/25 07:01:15;;;;;;;4.93;1.85;;;;;;;;;;5022016;28;20620;-61
2023/03/25 07:03:41;;;;;;;8.07;2.05;;;;;;;;;;5012801;28;20030;-61
2023/03/25 07:06:07;;;;;;;4.13;1.80;;;;;;;;;;5025895;28;20489;-61
2023/03/25 07:08:33;;;;;;;7.13;1.83;;;;;;;;;;5033376;28;20117;-61
2023/03/25 07:11:03;;;;;;;9.05;2.17;;;;;;;;;;5029167;28;20451;-62
2023/03/25 07:13:30;;;;;;;2.20;1.50;;;;;;;;;;5031348;28;20034;-62
2023/03/25 07:15:56;;;;;;;6.80;1.60;;;;;;;;;;5031032;28;20271;-63
2023/03/25 07:18:21;;;;;;;5.65;1.92;;;;;;;;;;5012179;28;20038;-62
2023/03/25 07:20:46;;;;;;;6.78;2.17;;;;;;;;;;5030473;28;20327;-61
2023/03/25 07:23:12;;;;;;;3.25;1.70;;;;;;;;;;5031472;28;20029;-62
2023/03/25 07:25:37;;;;;;;4.97;2.28;;;;;;;;;;5017480;28;20041;-62
2023/03/25 07:28:03;;;;;;;8.07;2.20;;;;;;;;;;5012212;28;20038;-60
2023/03/25 07:30:28;;;;;;;2.97;1.80;;;;;;;;;;5019227;28;20034;-62
2023/03/25 07:32:54;;;;;;;10.75;2.83;;;;;;;;;;5013464;28;20022;-60
2023/03/25 07:35:20;;;;;;;8.90;2.72;;;;;;;;;;5015146;28;20251;-62
2023/03/25 07:37:45;;;;;;;5.13;2.15;;;;;;;;;;5031484;28;20037;-61
2023/03/25 07:40:11;;;;;;;6.35;2.72;;;;;;;;;;5041893;28;20033;-60
2023/03/25 07:42:37;;;;;;;6.28;2.67;;;;;;;;;;5015530;28;20033;-60
2023/03/25 07:45:04;;;;;;;7.53;2.20;;;;;;;;;;5010936;28;20539;-60
2023/03/25 07:47:29;;;;;;;9.48;2.72;;;;;;;;;;5014338;28;20029;-62
2023/03/25 07:49:55;;;;;;;6.03;2.67;;;;;;;;;;5048008;28;20112;-62
2023/03/25 07:52:20;;;;;;;9.77;3.15;;;;;;;;;;5012004;28;20928;-62
2023/03/25 07:54:46;;;;;;;7.60;2.10;;;;;;;;;;5027306;28;20094;-61
2023/03/25 07:57:12;;;;;;;3.63;2.10;;;;;;;;;;5024434;28;20029;-62
2023/03/25 07:59:37;;;;;;;10.98;3.40;;;;;;;;;;5014272;28;20049;-60
2023/03/25 08:02:03;;;;;;;8.90;2.80;;;;;;;;;;5017045;28;20111;-62
2023/03/25 08:04:28;;;;;;;6.30;2.40;;;;;;;;;;5012446;28;20192;-62
2023/03/25 08:06:54;;;;;;;9.55;2.83;;;;;;;;;;5022964;28;20470;-60
2023/03/25 08:09:19;;;;;;;4.90;2.50;;;;;;;;;;5013976;28;20038;-62
2023/03/25 08:11:46;;;;;;;3.85;1.90;;;;;;;;;;5011509;28;20030;-62
2023/03/25 08:14:11;;;;;;;7.00;2.28;;;;;;;;;;5015433;28;20056;-62
2023/03/25 08:16:36;;;;;;;5.03;2.05;;;;;;;;;;5023104;28;20454;-62
2023/03/25 08:19:02;;;;;;;11.60;2.65;;;;;;;;;;5051402;28;20100;-63
2023/03/25 08:21:28;;;;;;;6.85;2.22;;;;;;;;;;5014401;28;20390;-61
2023/03/25 08:23:57;;;;;;;4.22;1.70;;;;;;;;;;5024732;28;20033;-65
2023/03/25 08:26:25;;;;;;;8.00;2.45;;;;;;;;;;5010705;28;20524;-62
2023/03/25 08:28:53;;;;;;;4.47;1.60;;;;;;;;;;5015650;28;20033;-63
2023/03/25 08:31:20;;;;;;;7.72;2.10;;;;;;;;;;5045492;28;20477;-62
2023/03/25 08:33:46;;;;;;;5.13;1.63;;;;;;;;;;5052102;28;20047;-62
2023/03/25 08:36:13;;;;;;;5.80;1.83;;;;;;;;;;5034194;28;20495;-61
2023/03/25 08:38:40;;;;;;;7.32;1.85;;;;;;;;;;5031132;28;20087;-61
2023/03/25 08:41:06;;;;;;;4.60;1.50;;;;;;;;;;5023261;28;20037;-62
2023/03/25 08:43:31;;;;;;;5.45;1.80;;;;;;;;;;5020111;28;20034;-62
2023/03/25 08:45:56;;;;;;;6.10;1.52;;;;;;;;;;5037139;28;20035;-61
2023/03/25 08:48:23;;;;;;;6.43;1.65;;;;;;;;;;5050859;28;20100;-61
2023/03/25 08:50:48;;;;;;;4.20;1.40;;;;;;;;;;5015657;28;20116;-61
2023/03/25 08:53:14;;;;;;;5.03;1.85;;;;;;;;;;5011569;28;20120;-61
2023/03/25 08:55:39;;;;;;;4.53;1.65;;;;;;;;;;5012253;28;20394;-61
2023/03/25 08:58:06;;;;;;;7.10;1.73;;;;;;;;;;5011650;28;20030;-62
2023/03/25 09:00:33;;;;;;;7.15;1.80;;;;;;;;;;5034371;28;20116;-61
2023/03/25 09:02:59;;;;;;;9.00;1.60;;;;;;;;;;5022001;28;20033;-61
2023/03/25 09:05:25;;;;;;;5.93;1.63;;;;;;;;;;5027803;28;20616;-61
2023/03/25 09:07:51;;;;;;;6.30;1.60;;;;;;;;;;5031474;28;20064;-61
2023/03/25 09:10:16;;;;;;;5.72;1.73;;;;;;;;;;5027650;28;20486;-62
2023/03/25 09:12:42;;;;;;;3.60;1.30;;;;;;;;;;5028952;28;20036;-61
2023/03/25 09:15:08;;;;;;;8.93;1.77;;;;;;;;;;5050005;28;20029;-62
2023/03/25 09:17:34;;;;;;;6.00;1.58;;;;;;;;;;5051433;28;20064;-63
2023/03/25 09:20:00;;;;;;;9.52;2.22;;;;;;;;;;5039476;28;20069;-62
2023/03/25 09:22:25;;;;;;;4.68;1.65;;;;;;;;;;5050795;28;20732;-62
2023/03/25 09:24:50;;;;;;;7.72;1.63;;;;;;;;;;5032681;28;20068;-63
2023/03/25 09:27:16;;;;;;;11.48;2.38;;;;;;;;;;5035993;28;20028;-60
2023/03/25 09:29:41;;;;;;;7.28;2.20;;;;;;;;;;5032031;28;20026;-61
2023/03/25 09:32:08;;;;;;;6.15;2.10;;;;;;;;;;5025813;28;20038;-61
2023/03/25 09:34:33;;;;;;;4.85;1.90;;;;;;;;;;5030004;28;20091;-61
2023/03/25 09:36:59;;;;;;;5.70;2.00;;;;;;;;;;5015282;28;20022;-61
2023/03/25 09:39:24;;;;;;;9.45;2.30;;;;;;;;;;5030385;28;20037;-66
2023/03/25 09:42:11;;;;;;;9.10;2.38;;;;;;;;;;5039938;28;20060;-67
2023/03/25 09:44:59;;;;;;;8.27;2.20;;;;;;;;;;5053082;28;20044;-65
2023/03/25 09:47:28;;;;;;;4.30;2.00;;;;;;;;;;5033012;28;20034;-66
2023/03/25 09:49:57;;;;;;;3.78;1.60;;;;;;;;;;5035001;28;20029;-65
2023/03/25 09:52:28;;;;;;;4.72;1.90;;;;;;;;;;5047406;28;20445;-64
2023/03/25 09:55:01;;;;;;;4.47;1.88;;;;;;;;;;5055035;28;20057;-64
2023/03/25 09:57:30;;;;;;;4.28;1.70;;;;;;;;;;5039092;28;20064;-63
2023/03/25 10:00:00;;;;;;;9.38;2.00;;;;;;;;;;5050234;28;20060;-62
2023/03/25 10:02:36;;;;;;;6.93;1.90;;;;;;;;;;5036262;28;20037;-62
2023/03/25 10:05:20;;;;;;;6.30;2.05;;;;;;;;;;5028697;28;20045;-63
2023/03/25 10:08:04;;;;;;;9.18;2.75;;;;;;;;;;5029943;28;20044;-62
2023/03/25 10:10:44;;;;;;;9.38;2.40;;;;;;;;;;5033823;28;20061;-63
2023/03/25 10:13:28;;;;;;;12.88;2.70;;;;;;;;;;5031761;28;20083;-62
2023/03/25 10:16:06;;;;;;;6.93;2.38;;;;;;;;;;5033462;28;20136;-63
2023/03/25 10:18:53;;;;;;;9.30;2.80;;;;;;;;;;5019907;28;20034;-63
2023/03/25 10:21:41;;;;;;;7.00;2.20;;;;;;;;;;5032349;28;20494;-62
2023/03/25 10:24:19;;;;;;;5.20;1.92;;;;;;;;;;5020408;28;20490;-62
2023/03/25 10:27:00;;;;;;;12.82;2.40;;;;;;;;;;5014961;28;20056;-62
2023/03/25 10:29:32;;;;;;;12.48;2.75;;;;;;;;;;5019319;28;20029;-63
2023/03/25 10:32:24;;;;;;;6.55;2.38;;;;;;;;;;5053713;28;20028;-62
2023/03/25 10:34:51;;;;;;;8.82;2.08;;;;;;;;;;5045151;28;20439;-62
2023/03/25 10:37:48;;;;;;;12.88;2.67;;;;;;;;;;5030817;28;20052;-64
2023/03/25 10:40:34;;;;;;;13.32;2.85;;;;;;;;;;5027490;28;20505;-62
2023/03/25 10:43:09;;;;;;;9.80;2.63;;;;;;;;;;5031069;28;20042;-63
2023/03/25 10:45:34;;;;;;;10.77;3.00;;;;;;;;;;5028353;28;20033;-63
2023/03/25 10:48:19;;;;;;;7.32;2.22;;;;;;;;;;5033631;28;20033;-64
2023/03/25 10:50:46;;;;;;;8.82;2.15;;;;;;;;;;5014241;28;20060;-62
2023/03/25 10:53:20;;;;;;;7.68;2.22;;;;;;;;;;5019519;28;20025;-62
2023/03/25 10:55:52;;;;;;;6.47;1.75;;;;;;;;;;5033327;28;20037;-63
2023/03/25 10:58:18;;;;;;;6.93;2.15;;;;;;;;;;5032419;28;20030;-64
2023/03/25 11:00:44;;;;;;;5.82;1.85;;;;;;;;;;5033168;28;20426;-63
2023/03/25 11:03:30;;;;;;;7.75;1.90;;;;;;;;;;5046882;28;20059;-63
2023/03/25 11:05:56;;;;;;;6.32;1.90;;;;;;;;;;5053841;28;20079;-63
2023/03/25 11:08:23;;;;;;;8.93;2.10;;;;;;;;;;5034691;28;20120;-63
2023/03/25 11:10:56;;;;;;;6.97;1.65;;;;;;;;;;5032677;28;20071;-62
2023/03/25 11:13:29;;;;;;;5.32;2.20;;;;;;;;;;5032564;28;20042;-63
2023/03/25 11:15:58;;;;;;;12.90;2.83;;;;;;;;;;5032317;28;20477;-63
2023/03/25 11:18:37;;;;;;;13.13;3.08;;;;;;;;;;5032485;28;20120;-64
2023/03/25 11:21:08;;;;;;;8.23;2.55;;;;;;;;;;5039066;28;20469;-63
2023/03/25 11:23:35;;;;;;;9.45;2.97;;;;;;;;;;5017460;28;20029;-63
2023/03/25 11:26:16;;;;;;;7.55;2.50;;;;;;;;;;5023356;28;20063;-64
2023/03/25 11:28:46;;;;;;;;;;;;;;;;;;5031952;28;20056;-62
2023/03/25 11:31:15;;;;;;;6.57;2.25;;;;;;;;;;5052115;28;19920;-64
2023/03/25 11:33:42;;;;;;;5.65;2.10;;;;;;;;;;5046874;28;20053;-65
2023/03/25 11:36:21;;;;;;;8.80;2.50;;;;;;;;;;5053388;28;20037;-63
2023/03/25 11:38:52;;;;;;;5.03;1.85;;;;;;;;;;5042455;28;20402;-64
2023/03/25 11:41:18;;;;;;;;;;;;;;;;;;5026556;28;20026;-64
2023/03/25 11:43:47;;;;;;;6.05;2.08;;;;;;;;;;5012675;28;19936;-66
2023/03/25 11:46:18;;;;;;;5.35;2.17;;;;;;;;;;5028370;28;20364;-65
2023/03/25 11:48:45;;;;;;;6.93;1.92;;;;;;;;;;5013514;28;20033;-63
2023/03/25 11:51:27;;;;;;;7.85;2.20;;;;;;;;;;5023930;28;20471;-64
2023/03/25 11:53:58;;;;;;;6.72;1.80;;;;;;;;;;5024408;28;20037;-66
2023/03/25 11:56:30;;;;;;;6.00;1.73;;;;;;;;;;5029791;28;20480;-64
2023/03/25 11:58:58;;;;;;;5.82;1.48;;;;;;;;;;5049715;28;20029;-65
2023/03/25 12:01:56;;;;;;;6.47;1.60;;;;;;;;;;5042726;28;20021;-65
2023/03/25 12:04:23;;;;;;;3.00;1.40;;;;;;;;;;5011438;28;20053;-65
2023/03/25 12:06:53;;;;;;;5.72;1.30;;;;;;;;;;5012986;28;20069;-70
2023/03/25 12:09:19;;;;;;;6.77;1.57;;;;;;;;;;5031748;28;20026;-66
2023/03/25 12:12:08;;;;;;;2.72;1.35;;;;;;;;;;5031449;28;20018;-69
2023/03/25 12:14:51;;;;;;;7.55;1.50;;;;;;;;;;5031503;28;20115;-72
2023/03/25 12:17:25;;;;;;;5.45;1.40;;;;;;;;;;5027312;28;20489;-70
2023/03/25 12:20:00;;;;;;;7.47;1.60;;;;;;;;;;5030935;28;20041;-67
2023/03/25 12:22:34;;;;;;;6.82;1.55;;;;;;;;;;5030666;28;20025;-64
2023/03/25 12:25:19;;;;;;;6.50;1.67;;;;;;;;;;5052506;28;20045;-64
2023/03/25 12:27:56;;;;;;;6.60;1.63;;;;;;;;;;5045735;28;20108;-64
2023/03/25 12:30:40;;;;;;;5.45;2.03;;;;;;;;;;5050952;28;20091;-63
2023/03/25 12:33:21;;;;;;;8.52;1.90;;;;;;;;;;5029661;28;20108;-65
2023/03/25 12:36:04;;;;;;;3.90;1.77;;;;;;;;;;5029897;28;20041;-64
2023/03/25 12:38:55;;;;;;;3.28;1.30;;;;;;;;;;5015568;28;20046;-64
2023/03/25 12:41:38;;;;;;;4.15;1.45;;;;;;;;;;5011283;28;20038;-64
2023/03/25 12:44:09;;;;;;;5.65;1.63;;;;;;;;;;5050980;28;20029;-64
2023/03/25 12:46:34;;;;;;;;;;;;;;;;;;5050370;28;20821;-64
2023/03/25 12:49:41;;;;;;;3.42;1.40;;;;;;;;;;5025663;28;19921;-65
2023/03/25 12:52:18;;;;;;;5.95;1.63;;;;;;;;;;5027993;28;20034;-65
2023/03/25 12:55:02;;;;;;;5.03;1.70;;;;;;;;;;5030519;28;20048;-63
2023/03/25 12:57:37;;;;;;;8.63;1.75;;;;;;;;;;5030880;28;20033;-64
2023/03/25 13:00:25;;;;;;;3.95;1.50;;;;;;;;;;5031212;28;20121;-66
2023/03/25 13:03:21;;;;;;;5.88;1.90;;;;;;;;;;5031663;28;20382;-65
2023/03/25 13:06:35;;;;;;;4.97;1.85;;;;;;;;;;5030659;28;20498;-64
2023/03/25 13:09:24;;;;;;;8.80;1.88;;;;;;;;;;5020361;28;20052;-66
2023/03/25 13:11:59;;;;;;;6.90;1.65;;;;;;;;;;5051410;28;20033;-66
2023/03/25 13:14:37;;;;;;;7.13;1.70;;;;;;;;;;5011107;28;20102;-66
2023/03/25 13:17:10;;;;;;;7.15;2.08;;;;;;;;;;5011983;28;20032;-65
2023/03/25 13:19:40;;;;;;;4.28;1.42;;;;;;;;;;5022989;28;20029;-65
2023/03/25 13:22:30;;;;;;;6.50;1.47;;;;;;;;;;5053885;28;20363;-65
2023/03/25 13:25:01;;;;;;;3.33;1.47;;;;;;;;;;5035048;28;20086;-66
2023/03/25 13:27:33;;;;;;;;;;;;;;;;;;5031855;28;20509;-65
2023/03/25 13:30:00;;;;;;;2.05;1.05;;;;;;;;;;5015952;28;19914;-64
2023/03/25 13:32:33;;;;;;;4.43;1.40;;;;;;;;;;5015241;28;20033;-64
2023/03/25 13:35:06;;;;;;;3.92;1.13;;;;;;;;;;5055362;28;20033;-65
2023/03/25 13:37:39;;;;;;;5.20;1.55;;;;;;;;;;5044511;28;20379;-65
2023/03/25 13:40:11;;;;;;;5.35;1.55;;;;;;;;;;5015849;28;20030;-65
2023/03/25 13:43:00;;;;;;;3.15;1.30;;;;;;;;;;5018053;28;20225;-64
2023/03/25 13:45:31;;;;;;;2.45;1.15;;;;;;;;;;5022191;28;20038;-64
2023/03/25 13:48:13;;;;;;;5.28;1.50;;;;;;;;;;5037341;28;20029;-64
2023/03/25 13:50:38;;;;;;;6.35;1.52;;;;;;;;;;5040705;28;20071;-64
2023/03/25 13:53:14;;;;;;;5.38;1.73;;;;;;;;;;5034752;28;20065;-65
2023/03/25 13:55:52;;;;;;;3.00;1.10;;;;;;;;;;5034098;28;20029;-65
2023/03/25 13:58:48;;;;;;;7.75;1.25;;;;;;;;;;5049957;28;20052;-65
2023/03/25 14:01:41;;;;;;;3.92;1.30;;;;;;;;;;5038683;28;20029;-65
2023/03/25 14:04:25;;;;;;;2.35;1.23;;;;;;;;;;5032838;28;20123;-67
2023/03/25 14:06:58;;;;;;;3.38;1.15;;;;;;;;;;5026943;28;20076;-66
2023/03/25 14:09:41;;;;;;;3.38;1.08;;;;;;;;;;5025527;28;20048;-66
2023/03/25 14:12:13;;;;;;;5.13;1.38;;;;;;;;;;5020887;28;20049;-66
2023/03/25 14:14:57;;;;;;;5.47;1.48;;;;;;;;;;5013618;28;20033;-64
2023/03/25 14:17:23;;;;;;;3.13;1.23;;;;;;;;;;5022334;28;20097;-65
2023/03/25 14:19:54;;;;;;;3.33;1.05;;;;;;;;;;5025399;28;20030;-68
2023/03/25 14:22:31;;;;;;;5.55;1.40;;;;;;;;;;5025819;28;20037;-67
2023/03/25 14:24:58;;;;;;;1.65;1.00;;;;;;;;;;5031728;28;20037;-68
2023/03/25 14:27:34;;;;;;;4.35;1.25;;;;;;;;;;5020126;28;20378;-67
2023/03/25 14:30:01;;;;;;;5.65;1.30;;;;;;;;;;5014240;28;20532;-68
2023/03/25 14:32:31;;;;;;;4.72;1.35;;;;;;;;;;5025210;28;20041;-68
2023/03/25 14:35:35;;;;;;;5.07;1.58;;;;;;;;;;5025380;28;20041;-69
2023/03/25 14:38:06;;;;;;;2.88;1.15;;;;;;;;;;5013102;28;20050;-68
2023/03/25 14:40:38;;;;;;;4.45;1.90;;;;;;;;;;5013483;28;20532;-69
2023/03/25 14:43:23;;;;;;;3.13;1.13;;;;;;;;;;5028734;28;20060;-69
2023/03/25 14:46:10;;;;;;;3.20;1.00;;;;;;;;;;5025111;28;20108;-67
2023/03/25 14:48:44;;;;;;;2.75;0.90;;;;;;;;;;5014770;28;20045;-66
2023/03/25 14:51:19;;;;;;;1.60;1.00;;;;;;;;;;5016231;28;20037;-65
2023/03/25 14:53:55;;;;;;;3.67;1.63;;;;;;;;;;5027214;28;20053;-65
2023/03/25 14:56:24;;;;;;;2.05;1.20;;;;;;;;;;5031503;28;20037;-67
2023/03/25 14:58:53;;;;;;;3.78;1.48;;;;;;;;;;5023492;28;20068;-66
2023/03/25 15:01:20;;;;;;;3.83;1.23;;;;;;;;;;5033499;28;20033;-66
2023/03/25 15:03:47;;;;;;;3.03;1.20;;;;;;;;;;5032942;28;20150;-66
2023/03/25 15:06:27;;;;;;;2.47;1.40;;;;;;;;;;5032683;28;20043;-65
2023/03/25 15:08:56;;;;;;;3.88;1.20;;;;;;;;;;5040913;28;20044;-65
2023/03/25 15:11:31;;;;;;;3.75;1.10;;;;;;;;;;5032285;28;20083;-65